createdAt,value
2022-12-15T00:02:17.214Z,26.60
2022-12-15T00:07:42.032Z,26.60
2022-12-15T00:13:06.786Z,27.90
2022-12-15T00:18:31.355Z,28.00
2022-12-15T00:23:56.188Z,26.10
2022-12-15T00:29:20.587Z,25.10
2022-12-15T00:34:45.365Z,25.70
2022-12-15T00:39:59.296Z,26.30
2022-12-15T00:45:05.857Z,28.00
2022-12-15T00:50:30.872Z,25.00
2022-12-15T00:55:55.740Z,23.90
2022-12-15T01:01:28.524Z,27.10
2022-12-15T01:06:53.075Z,28.40
2022-12-15T01:12:17.540Z,26.10
2022-12-15T01:17:42.739Z,24.50
2022-12-15T01:22:50.272Z,26.20
2022-12-15T01:27:56.149Z,28.10
2022-12-15T01:33:01.825Z,25.80
2022-12-15T01:38:08.174Z,28.30
2022-12-15T01:43:17.853Z,27.90
2022-12-15T01:48:31.576Z,28.10
2022-12-15T01:53:44.136Z,26.10
2022-12-15T01:58:54.031Z,23.90
2022-12-15T02:04:00.734Z,24.00
2022-12-15T02:09:07.827Z,26.30
2022-12-15T02:14:20.004Z,26.10
2022-12-15T02:19:59.219Z,25.70
2022-12-15T02:25:19.137Z,27.30
2022-12-15T02:30:34.547Z,25.30
2022-12-15T02:35:50.154Z,25.60
2022-12-15T02:41:02.086Z,27.60
2022-12-15T02:46:20.291Z,30.70
2022-12-15T02:51:40.207Z,31.10
2022-12-15T02:56:58.282Z,30.70
2022-12-15T03:02:08.971Z,30.50
2022-12-15T03:07:15.510Z,26.00
2022-12-15T03:12:21.173Z,25.80
2022-12-15T03:17:26.865Z,26.20
2022-12-15T03:22:32.803Z,29.20
2022-12-15T03:27:38.613Z,30.10
2022-12-15T03:32:44.336Z,31.10
2022-12-15T03:37:50.210Z,32.30
2022-12-15T03:42:55.905Z,67.30
2022-12-15T03:48:01.808Z,45.20
2022-12-15T03:53:07.854Z,36.00
2022-12-15T03:58:13.832Z,35.90
2022-12-15T04:03:19.749Z,33.00
2022-12-15T04:08:26.856Z,32.30
2022-12-15T04:13:33.059Z,35.80
2022-12-15T04:18:39.483Z,33.30
2022-12-15T04:24:04.232Z,31.10
2022-12-15T04:29:28.552Z,30.30
2022-12-15T04:34:54.256Z,30.30
2022-12-15T04:40:20.071Z,32.40
2022-12-15T04:45:45.357Z,28.70
2022-12-15T04:51:09.890Z,30.90
2022-12-15T04:56:35.814Z,32.70
2022-12-15T05:02:00.498Z,32.70
2022-12-15T05:07:24.945Z,33.90
2022-12-15T05:12:50.121Z,34.20
2022-12-15T05:18:14.995Z,29.50
2022-12-15T05:23:39.662Z,29.00
2022-12-15T05:29:04.334Z,33.00
2022-12-15T05:34:10.068Z,32.50
2022-12-15T05:39:15.765Z,34.10
2022-12-15T05:44:21.609Z,35.40
2022-12-15T05:49:27.321Z,31.30
2022-12-15T05:54:33.309Z,33.50
2022-12-15T05:59:39.032Z,37.00
2022-12-15T06:04:44.937Z,36.80
2022-12-15T06:09:50.880Z,39.40
2022-12-15T06:14:56.796Z,31.30
2022-12-15T06:20:02.948Z,29.20
2022-12-15T06:25:10.075Z,33.40
2022-12-15T06:30:16.790Z,34.40
2022-12-15T06:35:22.452Z,35.30
2022-12-15T06:40:36.271Z,33.20
2022-12-15T06:45:50.054Z,31.70
2022-12-15T06:50:56.085Z,30.90
2022-12-15T06:56:04.321Z,33.60
2022-12-15T07:01:11.043Z,36.20
2022-12-15T07:06:18.948Z,37.00
2022-12-15T07:11:24.837Z,31.90
2022-12-15T07:16:31.227Z,36.20
2022-12-15T07:21:37.317Z,48.80
2022-12-15T07:26:43.180Z,49.40
2022-12-15T07:31:49.371Z,45.80
2022-12-15T07:36:55.652Z,38.50
2022-12-15T07:42:02.001Z,35.50
2022-12-15T07:47:07.871Z,37.50
2022-12-15T07:52:14.195Z,37.70
2022-12-15T07:57:20.144Z,36.70
2022-12-15T08:02:26.173Z,38.20
2022-12-15T08:07:32.157Z,31.20
2022-12-15T08:12:38.106Z,31.10
2022-12-15T08:17:46.686Z,34.20
2022-12-15T08:22:52.901Z,30.30
2022-12-15T08:27:58.761Z,26.30
2022-12-15T08:33:05.022Z,23.70
2022-12-15T08:38:10.768Z,25.40
2022-12-15T08:43:16.455Z,24.20
2022-12-15T08:48:23.876Z,25.70
2022-12-15T08:53:31.652Z,29.50
2022-12-15T08:58:38.609Z,30.10
2022-12-15T09:03:45.058Z,28.50
2022-12-15T09:08:53.450Z,42.80
2022-12-15T09:14:00.483Z,30.80
2022-12-15T09:19:08.192Z,29.30
2022-12-15T09:24:24.748Z,24.90
2022-12-15T09:34:40.208Z,26.20
2022-12-15T09:39:46.154Z,24.90
2022-12-15T09:44:58.461Z,25.00
2022-12-15T09:50:09.504Z,27.30
2022-12-15T10:00:29.804Z,24.10
2022-12-15T10:11:21.662Z,27.30
2022-12-15T10:16:34.938Z,25.00
2022-12-15T10:21:41.394Z,25.90
2022-12-15T10:26:54.131Z,29.40
2022-12-15T10:32:05.094Z,29.90
2022-12-15T10:42:22.041Z,27.00
2022-12-15T10:47:31.464Z,28.40
2022-12-15T10:52:38.873Z,35.60
2022-12-15T10:58:00.344Z,38.40
2022-12-15T11:03:23.219Z,40.10
2022-12-15T11:08:31.356Z,36.60
2022-12-15T11:13:38.054Z,37.20
2022-12-15T11:18:48.940Z,38.40
2022-12-15T11:24:05.771Z,39.40
2022-12-15T11:29:23.524Z,39.60
2022-12-15T11:34:36.828Z,37.00
2022-12-15T11:39:57.752Z,36.80
2022-12-15T11:50:28.183Z,34.40
2022-12-15T11:55:43.010Z,33.30
2022-12-15T12:00:59.103Z,35.40
2022-12-15T12:06:12.018Z,36.00
2022-12-15T12:11:21.717Z,37.70
2022-12-15T12:16:40.306Z,35.40
2022-12-15T12:27:31.837Z,33.30
2022-12-15T12:32:50.724Z,31.20
2022-12-15T12:43:34.946Z,29.20
2022-12-15T12:48:48.502Z,31.50
2022-12-15T12:53:55.643Z,32.80
2022-12-15T12:59:07.879Z,34.00
2022-12-15T13:04:34.428Z,30.60
2022-12-15T13:09:43.213Z,29.40
2022-12-15T13:14:51.925Z,32.80
2022-12-15T13:20:24.856Z,33.30
2022-12-15T13:25:42.862Z,35.20
2022-12-15T13:31:22.450Z,33.60
2022-12-15T13:37:01.804Z,32.60
2022-12-15T13:42:35.026Z,35.40
2022-12-15T13:47:50.379Z,38.40
2022-12-15T13:58:30.243Z,34.90
2022-12-15T14:03:37.320Z,33.20
2022-12-15T14:08:44.000Z,37.10
2022-12-15T14:13:54.204Z,39.40
2022-12-15T14:19:15.157Z,39.90
2022-12-15T14:30:18.285Z,37.00
2022-12-15T14:35:29.535Z,35.90
2022-12-15T14:40:37.861Z,36.50
2022-12-15T14:45:44.160Z,36.90
2022-12-15T14:50:51.271Z,33.30
2022-12-15T14:55:59.263Z,30.60
2022-12-15T15:01:19.039Z,29.60
2022-12-15T15:03:05.967Z,39.40
2022-12-15T15:03:07.202Z,32.30
2022-12-15T15:03:12.135Z,36.90
2022-12-15T15:06:32.258Z,30.00
2022-12-15T15:11:40.746Z,26.30
2022-12-15T15:16:58.590Z,31.00
2022-12-15T15:22:04.800Z,30.70
2022-12-15T15:27:35.041Z,31.00
2022-12-15T15:32:51.644Z,32.40
2022-12-15T15:38:03.400Z,34.60
2022-12-15T15:43:13.200Z,33.00
2022-12-15T15:48:25.109Z,33.00
2022-12-15T15:53:33.277Z,38.30
2022-12-15T15:58:39.408Z,40.50
2022-12-15T16:03:45.569Z,42.80
2022-12-15T16:08:56.238Z,37.70
2022-12-15T16:19:08.766Z,34.90
2022-12-15T16:24:19.467Z,47.50
2022-12-15T16:29:25.274Z,35.90
2022-12-15T16:34:31.297Z,41.60
2022-12-15T16:39:37.426Z,38.10
2022-12-15T16:44:43.396Z,33.40
2022-12-15T16:49:49.385Z,30.30
2022-12-15T16:54:56.579Z,33.30
2022-12-15T17:00:02.715Z,40.00
2022-12-15T17:05:09.842Z,34.30
2022-12-15T17:10:22.404Z,35.30
2022-12-15T17:15:29.381Z,33.80
2022-12-15T17:20:35.334Z,38.40
2022-12-15T17:26:19.675Z,44.70
2022-12-15T17:31:16.570Z,38.80
2022-12-15T17:36:24.501Z,53.10
2022-12-15T17:42:01.443Z,38.60
2022-12-15T17:46:56.723Z,32.50
2022-12-15T17:52:06.610Z,35.60
2022-12-15T17:57:12.952Z,34.30
2022-12-15T18:02:19.112Z,33.60
2022-12-15T18:07:25.824Z,35.50
2022-12-15T18:12:31.834Z,52.00
2022-12-15T18:17:37.619Z,30.40
2022-12-15T18:22:43.909Z,36.30
2022-12-15T18:27:50.002Z,41.30
2022-12-15T18:32:58.496Z,41.00
2022-12-15T18:38:12.104Z,43.40
2022-12-15T18:43:20.556Z,36.90
2022-12-15T18:48:27.932Z,34.80
2022-12-15T18:53:36.769Z,46.90
2022-12-15T18:58:43.052Z,41.50
2022-12-15T19:03:48.985Z,46.30
2022-12-15T19:08:54.916Z,42.40
2022-12-15T19:14:02.462Z,50.10
2022-12-15T19:19:31.183Z,35.00
2022-12-15T19:24:55.568Z,34.80
2022-12-15T19:30:01.644Z,36.90
2022-12-15T19:35:08.574Z,39.50
2022-12-15T19:40:22.303Z,41.00
2022-12-15T19:45:30.173Z,38.40
2022-12-15T19:50:40.815Z,42.80
2022-12-15T19:55:46.831Z,41.60
2022-12-15T20:00:52.982Z,32.00
2022-12-15T20:06:01.007Z,39.30
2022-12-15T20:11:09.281Z,42.70
2022-12-15T20:16:19.367Z,44.70
2022-12-15T20:21:31.491Z,45.70
2022-12-15T20:26:39.140Z,43.10
2022-12-15T20:31:45.261Z,45.90
2022-12-15T20:36:51.676Z,37.90
2022-12-15T20:41:58.225Z,34.60
2022-12-15T20:47:04.220Z,38.90
2022-12-15T20:52:18.548Z,44.00
2022-12-15T20:57:24.349Z,45.90
2022-12-15T21:02:31.084Z,42.30
2022-12-15T21:07:37.062Z,36.10
2022-12-15T21:12:45.887Z,38.90
2022-12-15T21:18:11.245Z,46.90
2022-12-15T21:23:25.709Z,45.70
2022-12-15T21:28:31.930Z,47.30
2022-12-15T21:33:38.140Z,38.50
2022-12-15T21:38:47.329Z,43.40
2022-12-15T21:43:53.440Z,51.70
2022-12-15T21:49:18.334Z,60.00
2022-12-15T21:54:30.727Z,52.50
2022-12-15T21:59:37.667Z,51.20
2022-12-15T22:04:43.519Z,49.10
2022-12-15T22:09:49.422Z,54.60
2022-12-15T22:14:57.886Z,53.30
2022-12-15T22:20:12.808Z,57.80
2022-12-15T22:25:21.281Z,49.40
2022-12-15T22:30:28.322Z,45.00
2022-12-15T22:35:34.268Z,43.60
2022-12-15T22:40:40.175Z,42.20
2022-12-15T22:45:47.875Z,38.60
2022-12-15T22:50:53.930Z,38.40
2022-12-15T22:56:03.469Z,40.00
2022-12-15T23:01:10.266Z,38.60
2022-12-15T23:06:16.177Z,41.70
2022-12-15T23:11:37.813Z,47.60
2022-12-15T23:16:45.551Z,35.20
2022-12-15T23:21:52.036Z,35.50
2022-12-15T23:26:58.276Z,37.80
2022-12-15T23:32:04.611Z,38.00
2022-12-15T23:37:10.493Z,40.50
2022-12-15T23:42:16.375Z,38.00
2022-12-15T23:47:22.234Z,34.80
2022-12-15T23:52:29.475Z,40.00
2022-12-15T23:57:35.688Z,41.10
